Open Full Screen Window  High Contrast Mode
Wind Gusting 00 knots
05
March 28, 2017 3:34 PM EDT
Weather Information
Wind Direction
  360 °
Wind Speed
  05 kt (6 mph)
Wind Gust
  00 kt (0 mph)
Altimeter
30.01 in
Visibility
10 SM
Temperature
15° C
59° F
Dewpoint
12° C
54° F
Humidity
82%
1hr Rain Fall
00.00 in.
24hr Rain Fall
00.05 in.
Sky Condition
Overcast @ 2,600 ft
Scattered @ 1,700 ft
MVFR

METAR KI69 281934Z AUTO 36005KT 10SM SCT017 OVC026 15/12 A3001 RMK AO2 T01500115

*Background is not an actual portrayal of the airport.